sensor_id;sensor_type;location;lat;lon;timestamp;temperature;humidity
11577;DHT22;5844;51.496;6.788;2023-02-28T00:01:21;0.20;1.00
11577;DHT22;5844;51.496;6.788;2023-02-28T00:03:47;0.30;37.50
11577;DHT22;5844;51.496;6.788;2023-02-28T00:06:13;0.40;29.70
11577;DHT22;5844;51.496;6.788;2023-02-28T00:08:39;0.40;21.10
11577;DHT22;5844;51.496;6.788;2023-02-28T00:11:10;0.30;1.00
11577;DHT22;5844;51.496;6.788;2023-02-28T00:13:39;0.20;1.00
11577;DHT22;5844;51.496;6.788;2023-02-28T00:16:14;0.10;1.00
11577;DHT22;5844;51.496;6.788;2023-02-28T00:18:40;-0.10;1.00
11577;DHT22;5844;51.496;6.788;2023-02-28T00:21:07;-0.10;50.20
11577;DHT22;5844;51.496;6.788;2023-02-28T00:23:33;0.00;99.90
11577;DHT22;5844;51.496;6.788;2023-02-28T00:25:58;-0.20;99.90
11577;DHT22;5844;51.496;6.788;2023-02-28T00:28:24;-0.20;99.90
11577;DHT22;5844;51.496;6.788;2023-02-28T00:30:51;-0.20;99.90
11577;DHT22;5844;51.496;6.788;2023-02-28T00:33:16;-0.20;99.90
11577;DHT22;5844;51.496;6.788;2023-02-28T00:35:43;-0.10;99.90
11577;DHT22;5844;51.496;6.788;2023-02-28T00:38:12;-0.20;99.90
11577;DHT22;5844;51.496;6.788;2023-02-28T00:40:37;-0.20;99.90
11577;DHT22;5844;51.496;6.788;2023-02-28T00:43:03;-0.20;99.90
11577;DHT22;5844;51.496;6.788;2023-02-28T00:45:29;-0.20;99.90
11577;DHT22;5844;51.496;6.788;2023-02-28T00:47:55;-0.20;99.90
11577;DHT22;5844;51.496;6.788;2023-02-28T00:50:21;-0.10;99.90
11577;DHT22;5844;51.496;6.788;2023-02-28T00:52:47;-0.10;99.90
11577;DHT22;5844;51.496;6.788;2023-02-28T00:55:13;0.60;99.90
11577;DHT22;5844;51.496;6.788;2023-02-28T00:57:38;-0.10;99.90
11577;DHT22;5844;51.496;6.788;2023-02-28T01:00:05;-0.20;99.90
11577;DHT22;5844;51.496;6.788;2023-02-28T01:02:31;-0.20;99.90
11577;DHT22;5844;51.496;6.788;2023-02-28T01:04:57;-0.20;99.90
11577;DHT22;5844;51.496;6.788;2023-02-28T01:07:23;-0.20;99.90
11577;DHT22;5844;51.496;6.788;2023-02-28T01:09:48;-0.10;99.90
11577;DHT22;5844;51.496;6.788;2023-02-28T01:12:14;-0.10;99.90
11577;DHT22;5844;51.496;6.788;2023-02-28T01:14:40;0.00;99.90
11577;DHT22;5844;51.496;6.788;2023-02-28T01:17:06;0.00;99.90
11577;DHT22;5844;51.496;6.788;2023-02-28T01:19:32;0.00;99.90
11577;DHT22;5844;51.496;6.788;2023-02-28T01:22:01;0.00;99.90
11577;DHT22;5844;51.496;6.788;2023-02-28T01:24:27;0.00;92.00
11577;DHT22;5844;51.496;6.788;2023-02-28T01:26:53;-0.10;60.40
11577;DHT22;5844;51.496;6.788;2023-02-28T01:29:19;-0.10;40.10
11577;DHT22;5844;51.496;6.788;2023-02-28T01:31:44;-0.20;29.20
11577;DHT22;5844;51.496;6.788;2023-02-28T01:34:10;-0.20;9.60
11577;DHT22;5844;51.496;6.788;2023-02-28T01:36:35;-0.20;22.30
11577;DHT22;5844;51.496;6.788;2023-02-28T01:39:01;-0.20;1.30
11577;DHT22;5844;51.496;6.788;2023-02-28T01:41:30;-0.20;42.00
11577;DHT22;5844;51.496;6.788;2023-02-28T01:44:05;-0.20;30.00
11577;DHT22;5844;51.496;6.788;2023-02-28T01:46:34;-0.20;31.70
11577;DHT22;5844;51.496;6.788;2023-02-28T01:49:09;-0.30;16.20
11577;DHT22;5844;51.496;6.788;2023-02-28T01:51:45;-0.30;5.10
11577;DHT22;5844;51.496;6.788;2023-02-28T01:54:28;-0.30;7.30
11577;DHT22;5844;51.496;6.788;2023-02-28T01:57:09;-0.40;4.20
11577;DHT22;5844;51.496;6.788;2023-02-28T02:00:00;-0.40;4.00
11577;DHT22;5844;51.496;6.788;2023-02-28T02:02:29;-0.50;1.00
11577;DHT22;5844;51.496;6.788;2023-02-28T02:05:04;-0.50;1.00
11577;DHT22;5844;51.496;6.788;2023-02-28T02:07:33;-0.50;1.00
11577;DHT22;5844;51.496;6.788;2023-02-28T02:10:03;-0.60;4.00
11577;DHT22;5844;51.496;6.788;2023-02-28T02:15:05;-0.70;1.00
11577;DHT22;5844;51.496;6.788;2023-02-28T02:17:41;-0.70;3.20
11577;DHT22;5844;51.496;6.788;2023-02-28T02:22:53;-0.80;77.80
11577;DHT22;5844;51.496;6.788;2023-02-28T02:25:40;-0.80;99.90
11577;DHT22;5844;51.496;6.788;2023-02-28T02:36:25;-1.00;99.90
11577;DHT22;5844;51.496;6.788;2023-02-28T02:39:04;-1.00;99.90
11577;DHT22;5844;51.496;6.788;2023-02-28T02:41:52;-1.00;99.90
11577;DHT22;5844;51.496;6.788;2023-02-28T02:44:34;-1.10;99.90
11577;DHT22;5844;51.496;6.788;2023-02-28T02:47:15;-1.10;99.90
11577;DHT22;5844;51.496;6.788;2023-02-28T02:49:49;-1.10;99.90
11577;DHT22;5844;51.496;6.788;2023-02-28T02:52:18;-1.10;99.90
11577;DHT22;5844;51.496;6.788;2023-02-28T02:54:48;-1.20;99.90
11577;DHT22;5844;51.496;6.788;2023-02-28T02:57:21;-1.20;99.90
11577;DHT22;5844;51.496;6.788;2023-02-28T02:59:50;-1.20;99.90
11577;DHT22;5844;51.496;6.788;2023-02-28T03:02:17;-1.20;99.90
11577;DHT22;5844;51.496;6.788;2023-02-28T03:04:48;-1.30;99.90
11577;DHT22;5844;51.496;6.788;2023-02-28T03:07:15;-1.30;99.90
11577;DHT22;5844;51.496;6.788;2023-02-28T03:09:53;-1.30;99.90
11577;DHT22;5844;51.496;6.788;2023-02-28T03:12:20;-1.30;99.90
11577;DHT22;5844;51.496;6.788;2023-02-28T03:18:01;-1.40;99.90
11577;DHT22;5844;51.496;6.788;2023-02-28T03:23:42;-1.30;99.90
11577;DHT22;5844;51.496;6.788;2023-02-28T03:26:22;-1.30;99.90
11577;DHT22;5844;51.496;6.788;2023-02-28T03:31:39;-1.40;99.90
11577;DHT22;5844;51.496;6.788;2023-02-28T03:36:53;-1.50;99.90
11577;DHT22;5844;51.496;6.788;2023-02-28T03:39:24;-1.50;99.90
11577;DHT22;5844;51.496;6.788;2023-02-28T03:42:02;-1.50;99.90
11577;DHT22;5844;51.496;6.788;2023-02-28T03:44:41;-1.60;99.90
11577;DHT22;5844;51.496;6.788;2023-02-28T03:47:16;-1.60;99.90
11577;DHT22;5844;51.496;6.788;2023-02-28T03:49:48;-1.60;99.90
11577;DHT22;5844;51.496;6.788;2023-02-28T03:52:17;-1.60;99.90
11577;DHT22;5844;51.496;6.788;2023-02-28T03:54:50;-1.60;99.90
11577;DHT22;5844;51.496;6.788;2023-02-28T03:57:43;-1.70;99.90
11577;DHT22;5844;51.496;6.788;2023-02-28T04:00:14;-1.60;99.90
11577;DHT22;5844;51.496;6.788;2023-02-28T04:02:41;-1.60;99.90
11577;DHT22;5844;51.496;6.788;2023-02-28T04:05:07;-1.60;99.90
11577;DHT22;5844;51.496;6.788;2023-02-28T04:07:33;-1.60;99.90
11577;DHT22;5844;51.496;6.788;2023-02-28T04:09:59;-1.70;99.90
11577;DHT22;5844;51.496;6.788;2023-02-28T04:12:25;-1.70;99.90
11577;DHT22;5844;51.496;6.788;2023-02-28T04:14:51;-1.70;99.90
11577;DHT22;5844;51.496;6.788;2023-02-28T04:17:17;-1.70;99.90
11577;DHT22;5844;51.496;6.788;2023-02-28T04:19:43;-1.70;99.90
11577;DHT22;5844;51.496;6.788;2023-02-28T04:22:09;-1.70;99.90
11577;DHT22;5844;51.496;6.788;2023-02-28T04:24:35;-1.80;99.90
11577;DHT22;5844;51.496;6.788;2023-02-28T04:27:01;-1.80;99.90
11577;DHT22;5844;51.496;6.788;2023-02-28T04:29:29;-1.80;99.90
11577;DHT22;5844;51.496;6.788;2023-02-28T04:31:56;-1.80;99.90
11577;DHT22;5844;51.496;6.788;2023-02-28T04:34:29;-1.80;99.90
11577;DHT22;5844;51.496;6.788;2023-02-28T04:36:55;-1.80;99.90
11577;DHT22;5844;51.496;6.788;2023-02-28T04:39:22;-1.90;99.90
11577;DHT22;5844;51.496;6.788;2023-02-28T04:41:48;-1.90;99.90
11577;DHT22;5844;51.496;6.788;2023-02-28T04:44:14;-1.90;99.90
11577;DHT22;5844;51.496;6.788;2023-02-28T04:46:40;-1.90;99.90
11577;DHT22;5844;51.496;6.788;2023-02-28T04:49:06;-1.90;99.90
11577;DHT22;5844;51.496;6.788;2023-02-28T04:51:31;-1.90;99.90
11577;DHT22;5844;51.496;6.788;2023-02-28T04:53:57;-1.90;99.90
11577;DHT22;5844;51.496;6.788;2023-02-28T04:56:23;-1.90;99.90
11577;DHT22;5844;51.496;6.788;2023-02-28T04:58:49;-2.00;99.90
11577;DHT22;5844;51.496;6.788;2023-02-28T05:01:24;-2.00;99.90
11577;DHT22;5844;51.496;6.788;2023-02-28T05:03:51;-2.00;99.90
11577;DHT22;5844;51.496;6.788;2023-02-28T05:06:17;-2.00;99.90
11577;DHT22;5844;51.496;6.788;2023-02-28T05:08:43;-2.10;99.90
11577;DHT22;5844;51.496;6.788;2023-02-28T05:11:18;-2.10;99.90
11577;DHT22;5844;51.496;6.788;2023-02-28T05:13:44;-2.10;99.90
11577;DHT22;5844;51.496;6.788;2023-02-28T05:16:10;-2.10;99.90
11577;DHT22;5844;51.496;6.788;2023-02-28T05:18:36;-2.10;99.90
11577;DHT22;5844;51.496;6.788;2023-02-28T05:21:02;-2.10;99.90
11577;DHT22;5844;51.496;6.788;2023-02-28T05:23:28;-2.10;99.90
11577;DHT22;5844;51.496;6.788;2023-02-28T05:25:54;-2.10;99.90
11577;DHT22;5844;51.496;6.788;2023-02-28T05:28:20;-2.10;99.90
11577;DHT22;5844;51.496;6.788;2023-02-28T05:30:46;-2.10;99.90
11577;DHT22;5844;51.496;6.788;2023-02-28T05:33:12;-2.10;99.90
11577;DHT22;5844;51.496;6.788;2023-02-28T05:35:39;-2.10;99.90
11577;DHT22;5844;51.496;6.788;2023-02-28T05:38:05;-2.10;99.90
11577;DHT22;5844;51.496;6.788;2023-02-28T05:40:31;-2.10;99.90
11577;DHT22;5844;51.496;6.788;2023-02-28T05:42:57;-2.10;99.90
11577;DHT22;5844;51.496;6.788;2023-02-28T05:45:22;-2.10;99.90
11577;DHT22;5844;51.496;6.788;2023-02-28T05:47:48;-2.10;99.90
11577;DHT22;5844;51.496;6.788;2023-02-28T05:50:13;-2.20;99.90
11577;DHT22;5844;51.496;6.788;2023-02-28T05:52:39;-2.20;99.90
11577;DHT22;5844;51.496;6.788;2023-02-28T05:55:05;-2.20;99.90
11577;DHT22;5844;51.496;6.788;2023-02-28T05:57:31;-2.20;99.90
11577;DHT22;5844;51.496;6.788;2023-02-28T05:59:56;-2.20;99.90
11577;DHT22;5844;51.496;6.788;2023-02-28T06:02:22;-2.30;99.90
11577;DHT22;5844;51.496;6.788;2023-02-28T06:04:48;-2.30;99.90
11577;DHT22;5844;51.496;6.788;2023-02-28T06:07:13;-2.30;99.90
11577;DHT22;5844;51.496;6.788;2023-02-28T06:09:39;-2.30;99.90
11577;DHT22;5844;51.496;6.788;2023-02-28T06:12:06;-2.30;99.90
11577;DHT22;5844;51.496;6.788;2023-02-28T06:14:33;-2.30;99.90
11577;DHT22;5844;51.496;6.788;2023-02-28T06:17:00;-2.30;99.90
11577;DHT22;5844;51.496;6.788;2023-02-28T06:19:26;-2.30;99.90
11577;DHT22;5844;51.496;6.788;2023-02-28T06:21:53;-2.30;99.90
11577;DHT22;5844;51.496;6.788;2023-02-28T06:24:20;-2.30;99.90
11577;DHT22;5844;51.496;6.788;2023-02-28T06:26:46;-2.30;99.90
11577;DHT22;5844;51.496;6.788;2023-02-28T06:29:12;-2.30;99.90
11577;DHT22;5844;51.496;6.788;2023-02-28T06:31:38;-2.30;99.90
11577;DHT22;5844;51.496;6.788;2023-02-28T06:34:04;-2.30;99.90
11577;DHT22;5844;51.496;6.788;2023-02-28T06:36:30;-2.30;99.90
11577;DHT22;5844;51.496;6.788;2023-02-28T06:38:56;-2.30;99.90
11577;DHT22;5844;51.496;6.788;2023-02-28T06:41:25;-2.20;99.90
11577;DHT22;5844;51.496;6.788;2023-02-28T06:43:52;-2.20;99.90
11577;DHT22;5844;51.496;6.788;2023-02-28T06:46:18;-2.20;99.90
11577;DHT22;5844;51.496;6.788;2023-02-28T06:48:44;-2.10;99.90
11577;DHT22;5844;51.496;6.788;2023-02-28T06:51:15;-1.80;99.90
11577;DHT22;5844;51.496;6.788;2023-02-28T06:53:42;-2.00;99.90
11577;DHT22;5844;51.496;6.788;2023-02-28T06:56:13;-2.00;99.90
11577;DHT22;5844;51.496;6.788;2023-02-28T06:58:39;-1.90;99.90
11577;DHT22;5844;51.496;6.788;2023-02-28T07:01:05;-1.80;99.90
11577;DHT22;5844;51.496;6.788;2023-02-28T07:03:32;-1.70;99.90
11577;DHT22;5844;51.496;6.788;2023-02-28T07:05:57;-1.70;99.90
11577;DHT22;5844;51.496;6.788;2023-02-28T07:08:24;-1.60;99.90
11577;DHT22;5844;51.496;6.788;2023-02-28T07:10:56;-1.60;99.90
11577;DHT22;5844;51.496;6.788;2023-02-28T07:13:23;-1.50;99.90
11577;DHT22;5844;51.496;6.788;2023-02-28T07:15:57;-1.40;99.90
11577;DHT22;5844;51.496;6.788;2023-02-28T07:18:23;-1.40;99.90
11577;DHT22;5844;51.496;6.788;2023-02-28T07:20:50;-1.30;99.90
11577;DHT22;5844;51.496;6.788;2023-02-28T07:23:15;-1.20;99.90
11577;DHT22;5844;51.496;6.788;2023-02-28T07:25:41;-1.10;99.90
11577;DHT22;5844;51.496;6.788;2023-02-28T07:28:07;-1.10;99.90
11577;DHT22;5844;51.496;6.788;2023-02-28T07:30:32;-1.00;99.90
11577;DHT22;5844;51.496;6.788;2023-02-28T07:32:58;-1.00;99.90
11577;DHT22;5844;51.496;6.788;2023-02-28T07:35:23;-0.90;99.90
11577;DHT22;5844;51.496;6.788;2023-02-28T07:37:49;-0.80;99.90
11577;DHT22;5844;51.496;6.788;2023-02-28T07:40:15;-0.80;99.90
11577;DHT22;5844;51.496;6.788;2023-02-28T07:42:42;-0.70;99.90
11577;DHT22;5844;51.496;6.788;2023-02-28T07:45:09;-0.60;99.90
11577;DHT22;5844;51.496;6.788;2023-02-28T07:47:40;-0.60;99.90
11577;DHT22;5844;51.496;6.788;2023-02-28T07:50:08;-0.40;99.90
11577;DHT22;5844;51.496;6.788;2023-02-28T07:52:34;-0.30;80.80
11577;DHT22;5844;51.496;6.788;2023-02-28T07:55:01;-0.30;1.00
11577;DHT22;5844;51.496;6.788;2023-02-28T07:57:26;-0.10;1.00
11577;DHT22;5844;51.496;6.788;2023-02-28T07:59:52;0.10;1.00
11577;DHT22;5844;51.496;6.788;2023-02-28T08:02:18;0.40;1.00
11577;DHT22;5844;51.496;6.788;2023-02-28T08:04:45;0.40;1.00
11577;DHT22;5844;51.496;6.788;2023-02-28T08:07:12;0.50;1.00
11577;DHT22;5844;51.496;6.788;2023-02-28T08:09:39;0.60;1.00
11577;DHT22;5844;51.496;6.788;2023-02-28T08:12:06;0.70;1.00
11577;DHT22;5844;51.496;6.788;2023-02-28T08:14:32;1.00;1.00
11577;DHT22;5844;51.496;6.788;2023-02-28T08:16:58;1.10;1.00
11577;DHT22;5844;51.496;6.788;2023-02-28T08:19:23;1.20;1.00
11577;DHT22;5844;51.496;6.788;2023-02-28T08:21:49;1.40;1.00
11577;DHT22;5844;51.496;6.788;2023-02-28T08:24:14;1.60;1.00
11577;DHT22;5844;51.496;6.788;2023-02-28T08:26:40;1.80;1.00
11577;DHT22;5844;51.496;6.788;2023-02-28T08:29:06;2.10;1.00
11577;DHT22;5844;51.496;6.788;2023-02-28T08:31:31;2.30;1.00
11577;DHT22;5844;51.496;6.788;2023-02-28T08:33:57;2.70;99.90
11577;DHT22;5844;51.496;6.788;2023-02-28T08:36:25;3.10;99.90
11577;DHT22;5844;51.496;6.788;2023-02-28T08:38:51;3.40;99.90
11577;DHT22;5844;51.496;6.788;2023-02-28T08:41:17;3.60;99.90
11577;DHT22;5844;51.496;6.788;2023-02-28T08:43:43;4.10;99.90
11577;DHT22;5844;51.496;6.788;2023-02-28T08:46:12;4.90;1.00
11577;DHT22;5844;51.496;6.788;2023-02-28T08:48:39;4.40;1.00
11577;DHT22;5844;51.496;6.788;2023-02-28T08:51:07;4.70;1.00
11577;DHT22;5844;51.496;6.788;2023-02-28T08:53:35;5.00;1.00
11577;DHT22;5844;51.496;6.788;2023-02-28T08:56:07;4.90;1.00
11577;DHT22;5844;51.496;6.788;2023-02-28T08:58:34;5.00;1.00
11577;DHT22;5844;51.496;6.788;2023-02-28T09:01:00;5.10;1.00
11577;DHT22;5844;51.496;6.788;2023-02-28T09:03:26;5.20;1.00
11577;DHT22;5844;51.496;6.788;2023-02-28T09:06:00;5.50;1.00
11577;DHT22;5844;51.496;6.788;2023-02-28T09:08:28;5.70;1.00
11577;DHT22;5844;51.496;6.788;2023-02-28T09:10:54;5.70;1.00
11577;DHT22;5844;51.496;6.788;2023-02-28T09:13:22;6.00;1.00
11577;DHT22;5844;51.496;6.788;2023-02-28T09:15:48;6.30;99.90
11577;DHT22;5844;51.496;6.788;2023-02-28T09:18:14;6.40;99.90
11577;DHT22;5844;51.496;6.788;2023-02-28T09:20:41;6.40;98.50
11577;DHT22;5844;51.496;6.788;2023-02-28T09:23:08;6.70;1.00
11577;DHT22;5844;51.496;6.788;2023-02-28T09:25:35;7.20;1.00
11577;DHT22;5844;51.496;6.788;2023-02-28T09:28:01;7.50;2.30
11577;DHT22;5844;51.496;6.788;2023-02-28T09:30:27;7.60;99.90
11577;DHT22;5844;51.496;6.788;2023-02-28T09:32:52;7.90;99.90
11577;DHT22;5844;51.496;6.788;2023-02-28T09:35:22;8.00;1.00
11577;DHT22;5844;51.496;6.788;2023-02-28T09:37:52;8.30;1.00
11577;DHT22;5844;51.496;6.788;2023-02-28T09:40:20;8.30;99.90
11577;DHT22;5844;51.496;6.788;2023-02-28T09:42:48;8.50;1.00
11577;DHT22;5844;51.496;6.788;2023-02-28T09:45:24;8.40;1.00
11577;DHT22;5844;51.496;6.788;2023-02-28T09:47:54;8.70;1.00
11577;DHT22;5844;51.496;6.788;2023-02-28T09:52:59;8.80;99.90
11577;DHT22;5844;51.496;6.788;2023-02-28T09:55:42;9.20;99.90
11577;DHT22;5844;51.496;6.788;2023-02-28T09:58:20;9.50;3.70
11577;DHT22;5844;51.496;6.788;2023-02-28T10:01:00;9.10;1.00
11577;DHT22;5844;51.496;6.788;2023-02-28T10:03:39;9.50;99.90
11577;DHT22;5844;51.496;6.788;2023-02-28T10:06:17;9.70;1.00
11577;DHT22;5844;51.496;6.788;2023-02-28T10:11:27;10.00;1.00
11577;DHT22;5844;51.496;6.788;2023-02-28T10:14:36;9.90;99.90
11577;DHT22;5844;51.496;6.788;2023-02-28T10:17:03;10.40;99.90
11577;DHT22;5844;51.496;6.788;2023-02-28T10:19:35;10.50;99.90
11577;DHT22;5844;51.496;6.788;2023-02-28T10:22:23;10.10;1.00
11577;DHT22;5844;51.496;6.788;2023-02-28T10:24:54;10.10;99.90
11577;DHT22;5844;51.496;6.788;2023-02-28T10:27:29;10.00;99.90
11577;DHT22;5844;51.496;6.788;2023-02-28T10:29:58;9.80;99.90
11577;DHT22;5844;51.496;6.788;2023-02-28T10:32:31;8.90;99.90
11577;DHT22;5844;51.496;6.788;2023-02-28T10:35:09;8.70;1.00
11577;DHT22;5844;51.496;6.788;2023-02-28T10:37:43;9.10;99.90
11577;DHT22;5844;51.496;6.788;2023-02-28T10:45:24;9.70;1.00
11577;DHT22;5844;51.496;6.788;2023-02-28T10:47:57;9.20;76.60
11577;DHT22;5844;51.496;6.788;2023-02-28T10:50:35;8.50;99.90
11577;DHT22;5844;51.496;6.788;2023-02-28T10:58:55;9.00;99.90
11577;DHT22;5844;51.496;6.788;2023-02-28T11:01:43;9.10;99.90
11577;DHT22;5844;51.496;6.788;2023-02-28T11:04:33;9.60;99.90
11577;DHT22;5844;51.496;6.788;2023-02-28T11:07:02;9.90;1.00
11577;DHT22;5844;51.496;6.788;2023-02-28T11:09:35;10.40;1.00
11577;DHT22;5844;51.496;6.788;2023-02-28T11:12:02;11.20;1.00
11577;DHT22;5844;51.496;6.788;2023-02-28T11:14:31;11.80;1.00
11577;DHT22;5844;51.496;6.788;2023-02-28T11:17:11;12.00;1.00
11577;DHT22;5844;51.496;6.788;2023-02-28T11:19:43;12.00;99.90
11577;DHT22;5844;51.496;6.788;2023-02-28T11:22:09;11.10;66.90
11577;DHT22;5844;51.496;6.788;2023-02-28T11:24:45;9.70;1.00
11577;DHT22;5844;51.496;6.788;2023-02-28T11:29:55;8.60;99.90
11577;DHT22;5844;51.496;6.788;2023-02-28T11:32:23;8.30;1.00
11577;DHT22;5844;51.496;6.788;2023-02-28T11:37:38;7.70;1.00
11577;DHT22;5844;51.496;6.788;2023-02-28T11:40:18;7.70;99.90
11577;DHT22;5844;51.496;6.788;2023-02-28T11:48:25;8.80;1.00
11577;DHT22;5844;51.496;6.788;2023-02-28T11:51:18;9.90;50.70
11577;DHT22;5844;51.496;6.788;2023-02-28T11:54:01;11.10;99.90
11577;DHT22;5844;51.496;6.788;2023-02-28T12:02:23;12.50;1.00
11577;DHT22;5844;51.496;6.788;2023-02-28T12:10:24;14.20;1.00
11577;DHT22;5844;51.496;6.788;2023-02-28T12:13:21;14.30;1.00
11577;DHT22;5844;51.496;6.788;2023-02-28T12:18:38;14.80;99.90
11577;DHT22;5844;51.496;6.788;2023-02-28T12:22:05;15.10;1.00
11577;DHT22;5844;51.496;6.788;2023-02-28T12:27:05;15.50;1.00
11577;DHT22;5844;51.496;6.788;2023-02-28T12:29:43;13.80;1.00
11577;DHT22;5844;51.496;6.788;2023-02-28T12:32:30;14.40;1.00
11577;DHT22;5844;51.496;6.788;2023-02-28T12:35:04;15.20;1.00
11577;DHT22;5844;51.496;6.788;2023-02-28T12:37:59;15.20;99.90
11577;DHT22;5844;51.496;6.788;2023-02-28T12:40:27;15.30;99.90
11577;DHT22;5844;51.496;6.788;2023-02-28T12:43:02;15.70;99.90
11577;DHT22;5844;51.496;6.788;2023-02-28T12:45:47;16.00;99.90
11577;DHT22;5844;51.496;6.788;2023-02-28T12:48:24;16.30;1.00
11577;DHT22;5844;51.496;6.788;2023-02-28T12:50:51;16.00;99.90
11577;DHT22;5844;51.496;6.788;2023-02-28T12:53:31;16.70;99.90
11577;DHT22;5844;51.496;6.788;2023-02-28T12:59:20;16.00;99.90
11577;DHT22;5844;51.496;6.788;2023-02-28T13:02:02;15.50;1.00
11577;DHT22;5844;51.496;6.788;2023-02-28T13:04:57;15.10;99.90
11577;DHT22;5844;51.496;6.788;2023-02-28T13:10:24;14.70;99.90
11577;DHT22;5844;51.496;6.788;2023-02-28T13:12:52;15.10;99.90
11577;DHT22;5844;51.496;6.788;2023-02-28T13:15:23;14.60;99.90
11577;DHT22;5844;51.496;6.788;2023-02-28T13:17:52;14.80;1.00
11577;DHT22;5844;51.496;6.788;2023-02-28T13:20:24;13.70;99.90
11577;DHT22;5844;51.496;6.788;2023-02-28T13:22:52;13.80;99.90
11577;DHT22;5844;51.496;6.788;2023-02-28T13:27:59;14.80;99.90
11577;DHT22;5844;51.496;6.788;2023-02-28T13:33:33;15.10;99.90
11577;DHT22;5844;51.496;6.788;2023-02-28T13:38:46;15.10;99.90
11577;DHT22;5844;51.496;6.788;2023-02-28T13:47:20;15.50;1.00
11577;DHT22;5844;51.496;6.788;2023-02-28T13:49:28;15.70;1.00
11577;DHT22;5844;51.496;6.788;2023-02-28T13:54:56;16.40;91.70
11577;DHT22;5844;51.496;6.788;2023-02-28T13:57:31;16.60;1.00
11577;DHT22;5844;51.496;6.788;2023-02-28T14:03:14;16.20;1.00
11577;DHT22;5844;51.496;6.788;2023-02-28T14:05:43;16.30;1.00
11577;DHT22;5844;51.496;6.788;2023-02-28T14:08:20;16.60;99.90
11577;DHT22;5844;51.496;6.788;2023-02-28T14:10:49;17.40;99.90
11577;DHT22;5844;51.496;6.788;2023-02-28T14:16:10;16.90;1.00
11577;DHT22;5844;51.496;6.788;2023-02-28T14:18:41;16.90;99.90
11577;DHT22;5844;51.496;6.788;2023-02-28T14:21:21;15.80;1.00
11577;DHT22;5844;51.496;6.788;2023-02-28T14:24:19;13.40;1.00
11577;DHT22;5844;51.496;6.788;2023-02-28T14:38:59;17.40;99.90
11577;DHT22;5844;51.496;6.788;2023-02-28T14:41:32;17.70;99.90
11577;DHT22;5844;51.496;6.788;2023-02-28T14:44:20;17.60;99.90
11577;DHT22;5844;51.496;6.788;2023-02-28T14:46:49;17.30;99.90
11577;DHT22;5844;51.496;6.788;2023-02-28T14:49:23;16.50;99.90
11577;DHT22;5844;51.496;6.788;2023-02-28T14:51:51;16.20;99.90
11577;DHT22;5844;51.496;6.788;2023-02-28T14:54:26;15.60;99.90
11577;DHT22;5844;51.496;6.788;2023-02-28T14:56:52;15.20;99.90
11577;DHT22;5844;51.496;6.788;2023-02-28T14:59:43;14.90;1.00
11577;DHT22;5844;51.496;6.788;2023-02-28T15:02:23;15.00;1.00
11577;DHT22;5844;51.496;6.788;2023-02-28T15:05:10;15.00;99.90
11577;DHT22;5844;51.496;6.788;2023-02-28T15:07:47;14.80;99.90
11577;DHT22;5844;51.496;6.788;2023-02-28T15:12:49;16.60;99.90
11577;DHT22;5844;51.496;6.788;2023-02-28T15:15:17;16.80;99.90
11577;DHT22;5844;51.496;6.788;2023-02-28T15:17:46;16.00;99.90
11577;DHT22;5844;51.496;6.788;2023-02-28T15:20:14;15.80;99.90
11577;DHT22;5844;51.496;6.788;2023-02-28T15:22:40;15.50;1.00
11577;DHT22;5844;51.496;6.788;2023-02-28T15:25:07;15.80;99.90
11577;DHT22;5844;51.496;6.788;2023-02-28T15:27:39;15.90;99.90
11577;DHT22;5844;51.496;6.788;2023-02-28T15:30:16;15.00;99.90
11577;DHT22;5844;51.496;6.788;2023-02-28T15:32:42;14.50;99.90
11577;DHT22;5844;51.496;6.788;2023-02-28T15:38:00;15.20;96.30
11577;DHT22;5844;51.496;6.788;2023-02-28T15:40:30;15.30;99.90
11577;DHT22;5844;51.496;6.788;2023-02-28T15:43:17;15.20;72.30
11577;DHT22;5844;51.496;6.788;2023-02-28T15:45:49;15.00;33.20
11577;DHT22;5844;51.496;6.788;2023-02-28T15:48:22;14.70;1.00
11577;DHT22;5844;51.496;6.788;2023-02-28T15:50:54;14.50;99.90
11577;DHT22;5844;51.496;6.788;2023-02-28T15:53:24;13.60;99.90
11577;DHT22;5844;51.496;6.788;2023-02-28T15:56:00;13.60;1.00
11577;DHT22;5844;51.496;6.788;2023-02-28T15:58:26;14.10;99.90
11577;DHT22;5844;51.496;6.788;2023-02-28T16:01:28;14.00;44.30
11577;DHT22;5844;51.496;6.788;2023-02-28T16:04:03;13.40;1.00
11577;DHT22;5844;51.496;6.788;2023-02-28T16:06:43;11.40;1.00
11577;DHT22;5844;51.496;6.788;2023-02-28T16:09:15;10.50;17.60
11577;DHT22;5844;51.496;6.788;2023-02-28T16:11:46;9.50;1.00
11577;DHT22;5844;51.496;6.788;2023-02-28T16:14:21;8.50;99.90
11577;DHT22;5844;51.496;6.788;2023-02-28T16:16:51;8.10;1.00
11577;DHT22;5844;51.496;6.788;2023-02-28T16:19:17;7.90;1.00
11577;DHT22;5844;51.496;6.788;2023-02-28T16:21:44;7.20;1.00
11577;DHT22;5844;51.496;6.788;2023-02-28T16:24:10;7.30;1.00
11577;DHT22;5844;51.496;6.788;2023-02-28T16:26:36;7.30;27.10
11577;DHT22;5844;51.496;6.788;2023-02-28T16:29:05;7.10;99.90
11577;DHT22;5844;51.496;6.788;2023-02-28T16:31:36;6.70;1.00
11577;DHT22;5844;51.496;6.788;2023-02-28T16:34:02;6.40;99.90
11577;DHT22;5844;51.496;6.788;2023-02-28T16:36:29;6.70;1.00
11577;DHT22;5844;51.496;6.788;2023-02-28T16:38:55;6.20;1.00
11577;DHT22;5844;51.496;6.788;2023-02-28T16:41:24;6.20;1.00
11577;DHT22;5844;51.496;6.788;2023-02-28T16:43:52;6.00;1.00
11577;DHT22;5844;51.496;6.788;2023-02-28T16:46:19;6.10;1.00
11577;DHT22;5844;51.496;6.788;2023-02-28T16:48:46;6.00;1.00
11577;DHT22;5844;51.496;6.788;2023-02-28T16:51:16;6.50;1.00
11577;DHT22;5844;51.496;6.788;2023-02-28T16:53:43;5.90;1.00
11577;DHT22;5844;51.496;6.788;2023-02-28T16:56:19;6.20;1.00
11577;DHT22;5844;51.496;6.788;2023-02-28T16:58:46;5.80;1.00
11577;DHT22;5844;51.496;6.788;2023-02-28T17:01:13;5.70;1.00
11577;DHT22;5844;51.496;6.788;2023-02-28T17:03:39;6.40;1.00
11577;DHT22;5844;51.496;6.788;2023-02-28T17:06:08;5.60;1.00
11577;DHT22;5844;51.496;6.788;2023-02-28T17:08:41;5.50;1.00
11577;DHT22;5844;51.496;6.788;2023-02-28T17:11:07;6.00;1.00
11577;DHT22;5844;51.496;6.788;2023-02-28T17:13:33;5.40;1.00
11577;DHT22;5844;51.496;6.788;2023-02-28T17:16:00;5.30;1.00
11577;DHT22;5844;51.496;6.788;2023-02-28T17:18:26;5.40;1.00
11577;DHT22;5844;51.496;6.788;2023-02-28T17:20:54;5.10;1.00
11577;DHT22;5844;51.496;6.788;2023-02-28T17:23:19;5.10;1.00
11577;DHT22;5844;51.496;6.788;2023-02-28T17:25:45;5.10;1.00
11577;DHT22;5844;51.496;6.788;2023-02-28T17:28:19;5.40;1.00
11577;DHT22;5844;51.496;6.788;2023-02-28T17:30:45;5.00;1.00
11577;DHT22;5844;51.496;6.788;2023-02-28T17:33:13;5.30;1.00
11577;DHT22;5844;51.496;6.788;2023-02-28T17:35:38;4.90;1.00
11577;DHT22;5844;51.496;6.788;2023-02-28T17:38:04;5.20;1.00
11577;DHT22;5844;51.496;6.788;2023-02-28T17:40:29;4.70;1.00
11577;DHT22;5844;51.496;6.788;2023-02-28T17:42:55;4.70;1.00
11577;DHT22;5844;51.496;6.788;2023-02-28T17:45:22;4.60;1.00
11577;DHT22;5844;51.496;6.788;2023-02-28T17:47:49;4.50;1.00
11577;DHT22;5844;51.496;6.788;2023-02-28T17:50:20;4.40;1.00
11577;DHT22;5844;51.496;6.788;2023-02-28T17:52:48;4.30;7.50
11577;DHT22;5844;51.496;6.788;2023-02-28T17:55:15;4.30;24.10
11577;DHT22;5844;51.496;6.788;2023-02-28T17:57:42;4.30;9.80
11577;DHT22;5844;51.496;6.788;2023-02-28T18:00:10;4.50;54.10
11577;DHT22;5844;51.496;6.788;2023-02-28T18:02:37;4.30;66.40
11577;DHT22;5844;51.496;6.788;2023-02-28T18:05:04;4.30;29.60
11577;DHT22;5844;51.496;6.788;2023-02-28T18:07:30;4.20;41.60
11577;DHT22;5844;51.496;6.788;2023-02-28T18:09:56;4.10;15.10
11577;DHT22;5844;51.496;6.788;2023-02-28T18:12:22;4.10;98.70